sensor_id;sensor_type;location;lat;lon;timestamp;P1;P2;P0
49708;PMS5003;35601;55.902;13.606;2023-07-28T00:02:09;11;11;
49708;PMS5003;35601;55.902;13.606;2023-07-28T00:04:34;9;9;
49708;PMS5003;35601;55.902;13.606;2023-07-28T00:07:00;10;10;
49708;PMS5003;35601;55.902;13.606;2023-07-28T00:09:25;10;10;
49708;PMS5003;35601;55.902;13.606;2023-07-28T00:11:51;10;10;
49708;PMS5003;35601;55.902;13.606;2023-07-28T00:14:16;9;9;
49708;PMS5003;35601;55.902;13.606;2023-07-28T00:16:42;10;10;
49708;PMS5003;35601;55.902;13.606;2023-07-28T00:19:07;10;10;
49708;PMS5003;35601;55.902;13.606;2023-07-28T00:21:32;10;9;
49708;PMS5003;35601;55.902;13.606;2023-07-28T00:23:58;11;9;
49708;PMS5003;35601;55.902;13.606;2023-07-28T00:26:24;11;11;
49708;PMS5003;35601;55.902;13.606;2023-07-28T00:28:49;9;9;
49708;PMS5003;35601;55.902;13.606;2023-07-28T00:31:15;9;9;
49708;PMS5003;35601;55.902;13.606;2023-07-28T00:33:40;11;10;
49708;PMS5003;35601;55.902;13.606;2023-07-28T00:36:06;7;7;
49708;PMS5003;35601;55.902;13.606;2023-07-28T00:38:31;13;12;
49708;PMS5003;35601;55.902;13.606;2023-07-28T00:40:57;9;9;
49708;PMS5003;35601;55.902;13.606;2023-07-28T00:43:22;12;9;
49708;PMS5003;35601;55.902;13.606;2023-07-28T00:45:47;9;9;
49708;PMS5003;35601;55.902;13.606;2023-07-28T00:48:12;11;10;
49708;PMS5003;35601;55.902;13.606;2023-07-28T00:50:38;10;10;
49708;PMS5003;35601;55.902;13.606;2023-07-28T00:53:03;10;8;
49708;PMS5003;35601;55.902;13.606;2023-07-28T00:55:28;12;12;
49708;PMS5003;35601;55.902;13.606;2023-07-28T00:57:54;10;10;
49708;PMS5003;35601;55.902;13.606;2023-07-28T01:00:19;11;10;
49708;PMS5003;35601;55.902;13.606;2023-07-28T01:02:45;14;13;
49708;PMS5003;35601;55.902;13.606;2023-07-28T01:05:10;11;11;
49708;PMS5003;35601;55.902;13.606;2023-07-28T01:07:37;9;8;
49708;PMS5003;35601;55.902;13.606;2023-07-28T01:10:02;12;10;
49708;PMS5003;35601;55.902;13.606;2023-07-28T01:12:26;10;9;
49708;PMS5003;35601;55.902;13.606;2023-07-28T01:14:52;10;10;
49708;PMS5003;35601;55.902;13.606;2023-07-28T01:17:17;8;8;
49708;PMS5003;35601;55.902;13.606;2023-07-28T01:19:42;10;7;
49708;PMS5003;35601;55.902;13.606;2023-07-28T01:22:13;10;9;
49708;PMS5003;35601;55.902;13.606;2023-07-28T01:24:35;10;9;
49708;PMS5003;35601;55.902;13.606;2023-07-28T01:26:58;10;10;
49708;PMS5003;35601;55.902;13.606;2023-07-28T01:29:23;8;8;
49708;PMS5003;35601;55.902;13.606;2023-07-28T01:31:48;7;7;
49708;PMS5003;35601;55.902;13.606;2023-07-28T01:34:21;10;10;
49708;PMS5003;35601;55.902;13.606;2023-07-28T01:36:39;10;10;
49708;PMS5003;35601;55.902;13.606;2023-07-28T01:39:05;11;11;
49708;PMS5003;35601;55.902;13.606;2023-07-28T01:41:30;8;8;
49708;PMS5003;35601;55.902;13.606;2023-07-28T01:43:55;10;8;
49708;PMS5003;35601;55.902;13.606;2023-07-28T01:46:20;9;8;
49708;PMS5003;35601;55.902;13.606;2023-07-28T01:48:45;6;6;
49708;PMS5003;35601;55.902;13.606;2023-07-28T01:51:11;7;7;
49708;PMS5003;35601;55.902;13.606;2023-07-28T01:53:36;9;8;
49708;PMS5003;35601;55.902;13.606;2023-07-28T01:56:02;10;9;
49708;PMS5003;35601;55.902;13.606;2023-07-28T01:58:27;13;11;
49708;PMS5003;35601;55.902;13.606;2023-07-28T02:00:52;9;9;
49708;PMS5003;35601;55.902;13.606;2023-07-28T02:03:18;13;12;
49708;PMS5003;35601;55.902;13.606;2023-07-28T02:05:43;9;7;
49708;PMS5003;35601;55.902;13.606;2023-07-28T02:08:09;11;11;
49708;PMS5003;35601;55.902;13.606;2023-07-28T02:10:34;9;9;
49708;PMS5003;35601;55.902;13.606;2023-07-28T02:13:00;8;8;
49708;PMS5003;35601;55.902;13.606;2023-07-28T02:15:25;16;14;
49708;PMS5003;35601;55.902;13.606;2023-07-28T02:17:50;9;9;
49708;PMS5003;35601;55.902;13.606;2023-07-28T02:20:15;12;11;
49708;PMS5003;35601;55.902;13.606;2023-07-28T02:22:41;9;8;
49708;PMS5003;35601;55.902;13.606;2023-07-28T02:25:06;11;10;
49708;PMS5003;35601;55.902;13.606;2023-07-28T02:27:31;8;8;
49708;PMS5003;35601;55.902;13.606;2023-07-28T02:29:56;8;8;
49708;PMS5003;35601;55.902;13.606;2023-07-28T02:32:22;9;9;
49708;PMS5003;35601;55.902;13.606;2023-07-28T02:34:47;11;11;
49708;PMS5003;35601;55.902;13.606;2023-07-28T02:37:13;11;11;
49708;PMS5003;35601;55.902;13.606;2023-07-28T02:39:38;11;9;
49708;PMS5003;35601;55.902;13.606;2023-07-28T02:42:03;9;7;
49708;PMS5003;35601;55.902;13.606;2023-07-28T02:44:28;10;10;
49708;PMS5003;35601;55.902;13.606;2023-07-28T02:46:54;7;7;
49708;PMS5003;35601;55.902;13.606;2023-07-28T02:49:19;9;8;
49708;PMS5003;35601;55.902;13.606;2023-07-28T02:51:45;7;7;
49708;PMS5003;35601;55.902;13.606;2023-07-28T02:54:10;7;7;
49708;PMS5003;35601;55.902;13.606;2023-07-28T02:56:35;7;7;
49708;PMS5003;35601;55.902;13.606;2023-07-28T02:59:00;10;10;
49708;PMS5003;35601;55.902;13.606;2023-07-28T03:01:26;8;8;
49708;PMS5003;35601;55.902;13.606;2023-07-28T03:03:52;9;9;
49708;PMS5003;35601;55.902;13.606;2023-07-28T03:06:17;9;9;
49708;PMS5003;35601;55.902;13.606;2023-07-28T03:08:42;6;6;
49708;PMS5003;35601;55.902;13.606;2023-07-28T03:11:07;9;8;
49708;PMS5003;35601;55.902;13.606;2023-07-28T03:13:32;7;7;
49708;PMS5003;35601;55.902;13.606;2023-07-28T03:15:58;8;8;
49708;PMS5003;35601;55.902;13.606;2023-07-28T03:18:23;9;8;
49708;PMS5003;35601;55.902;13.606;2023-07-28T03:20:49;7;7;
49708;PMS5003;35601;55.902;13.606;2023-07-28T03:23:14;8;8;
49708;PMS5003;35601;55.902;13.606;2023-07-28T03:25:40;9;8;
49708;PMS5003;35601;55.902;13.606;2023-07-28T03:28:06;11;11;
49708;PMS5003;35601;55.902;13.606;2023-07-28T03:30:31;9;9;
49708;PMS5003;35601;55.902;13.606;2023-07-28T03:32:56;10;10;
49708;PMS5003;35601;55.902;13.606;2023-07-28T03:35:21;6;5;
49708;PMS5003;35601;55.902;13.606;2023-07-28T03:37:47;6;6;
49708;PMS5003;35601;55.902;13.606;2023-07-28T03:40:12;7;7;
49708;PMS5003;35601;55.902;13.606;2023-07-28T03:42:37;7;7;
49708;PMS5003;35601;55.902;13.606;2023-07-28T03:45:02;8;7;
49708;PMS5003;35601;55.902;13.606;2023-07-28T03:47:28;10;10;
49708;PMS5003;35601;55.902;13.606;2023-07-28T03:49:53;9;9;
49708;PMS5003;35601;55.902;13.606;2023-07-28T03:52:19;7;7;
49708;PMS5003;35601;55.902;13.606;2023-07-28T03:54:44;8;7;
49708;PMS5003;35601;55.902;13.606;2023-07-28T03:57:09;8;8;
49708;PMS5003;35601;55.902;13.606;2023-07-28T03:59:34;11;10;
49708;PMS5003;35601;55.902;13.606;2023-07-28T04:02:00;12;12;
49708;PMS5003;35601;55.902;13.606;2023-07-28T04:04:25;13;12;
49708;PMS5003;35601;55.902;13.606;2023-07-28T04:06:50;11;10;
49708;PMS5003;35601;55.902;13.606;2023-07-28T04:09:16;11;11;
49708;PMS5003;35601;55.902;13.606;2023-07-28T04:11:41;10;10;
49708;PMS5003;35601;55.902;13.606;2023-07-28T04:14:07;11;10;
49708;PMS5003;35601;55.902;13.606;2023-07-28T04:16:33;11;10;
49708;PMS5003;35601;55.902;13.606;2023-07-28T04:18:58;8;8;
49708;PMS5003;35601;55.902;13.606;2023-07-28T04:21:23;11;9;
49708;PMS5003;35601;55.902;13.606;2023-07-28T04:23:49;11;10;
49708;PMS5003;35601;55.902;13.606;2023-07-28T04:26:14;7;7;
49708;PMS5003;35601;55.902;13.606;2023-07-28T04:28:39;6;6;
49708;PMS5003;35601;55.902;13.606;2023-07-28T04:31:04;10;10;
49708;PMS5003;35601;55.902;13.606;2023-07-28T04:33:29;7;7;
49708;PMS5003;35601;55.902;13.606;2023-07-28T04:35:55;8;7;
49708;PMS5003;35601;55.902;13.606;2023-07-28T04:38:20;11;9;
49708;PMS5003;35601;55.902;13.606;2023-07-28T04:40:45;8;7;
49708;PMS5003;35601;55.902;13.606;2023-07-28T04:43:11;8;8;
49708;PMS5003;35601;55.902;13.606;2023-07-28T04:45:36;7;6;
49708;PMS5003;35601;55.902;13.606;2023-07-28T04:48:02;10;10;
49708;PMS5003;35601;55.902;13.606;2023-07-28T04:50:28;10;8;
49708;PMS5003;35601;55.902;13.606;2023-07-28T04:52:53;10;8;
49708;PMS5003;35601;55.902;13.606;2023-07-28T04:55:18;9;9;
49708;PMS5003;35601;55.902;13.606;2023-07-28T04:57:43;11;10;
49708;PMS5003;35601;55.902;13.606;2023-07-28T05:00:09;6;6;
49708;PMS5003;35601;55.902;13.606;2023-07-28T05:02:33;7;6;
49708;PMS5003;35601;55.902;13.606;2023-07-28T05:04:59;8;7;
49708;PMS5003;35601;55.902;13.606;2023-07-28T05:07:24;8;7;
49708;PMS5003;35601;55.902;13.606;2023-07-28T05:09:49;8;7;
49708;PMS5003;35601;55.902;13.606;2023-07-28T05:12:14;7;7;
49708;PMS5003;35601;55.902;13.606;2023-07-28T05:14:39;8;8;
49708;PMS5003;35601;55.902;13.606;2023-07-28T05:17:04;10;9;
49708;PMS5003;35601;55.902;13.606;2023-07-28T05:19:29;7;7;
49708;PMS5003;35601;55.902;13.606;2023-07-28T05:21:54;9;9;
49708;PMS5003;35601;55.902;13.606;2023-07-28T05:24:20;8;8;
49708;PMS5003;35601;55.902;13.606;2023-07-28T05:26:45;11;11;
49708;PMS5003;35601;55.902;13.606;2023-07-28T05:29:10;8;7;
49708;PMS5003;35601;55.902;13.606;2023-07-28T05:31:35;8;8;
49708;PMS5003;35601;55.902;13.606;2023-07-28T05:34:01;13;10;
49708;PMS5003;35601;55.902;13.606;2023-07-28T05:36:26;13;13;
49708;PMS5003;35601;55.902;13.606;2023-07-28T05:38:51;12;12;
49708;PMS5003;35601;55.902;13.606;2023-07-28T05:41:17;10;10;
49708;PMS5003;35601;55.902;13.606;2023-07-28T05:43:42;15;14;
49708;PMS5003;35601;55.902;13.606;2023-07-28T05:46:07;12;12;
49708;PMS5003;35601;55.902;13.606;2023-07-28T05:48:33;17;14;
49708;PMS5003;35601;55.902;13.606;2023-07-28T05:50:58;16;16;
49708;PMS5003;35601;55.902;13.606;2023-07-28T05:53:24;20;20;
49708;PMS5003;35601;55.902;13.606;2023-07-28T05:55:49;16;16;
49708;PMS5003;35601;55.902;13.606;2023-07-28T05:58:14;17;15;
49708;PMS5003;35601;55.902;13.606;2023-07-28T06:00:40;15;15;
49708;PMS5003;35601;55.902;13.606;2023-07-28T06:03:05;17;15;
49708;PMS5003;35601;55.902;13.606;2023-07-28T06:05:30;16;15;
49708;PMS5003;35601;55.902;13.606;2023-07-28T06:07:55;19;17;
49708;PMS5003;35601;55.902;13.606;2023-07-28T06:10:20;16;13;
49708;PMS5003;35601;55.902;13.606;2023-07-28T06:12:46;14;14;
49708;PMS5003;35601;55.902;13.606;2023-07-28T06:15:11;23;21;
49708;PMS5003;35601;55.902;13.606;2023-07-28T06:17:36;12;12;
49708;PMS5003;35601;55.902;13.606;2023-07-28T06:20:01;13;13;
49708;PMS5003;35601;55.902;13.606;2023-07-28T06:22:26;14;12;
49708;PMS5003;35601;55.902;13.606;2023-07-28T06:24:52;12;12;
49708;PMS5003;35601;55.902;13.606;2023-07-28T06:27:17;11;11;
49708;PMS5003;35601;55.902;13.606;2023-07-28T06:29:42;16;13;
49708;PMS5003;35601;55.902;13.606;2023-07-28T06:32:08;17;13;
49708;PMS5003;35601;55.902;13.606;2023-07-28T06:34:33;14;13;
49708;PMS5003;35601;55.902;13.606;2023-07-28T06:36:59;14;12;
49708;PMS5003;35601;55.902;13.606;2023-07-28T06:39:24;12;12;
49708;PMS5003;35601;55.902;13.606;2023-07-28T06:41:50;13;12;
49708;PMS5003;35601;55.902;13.606;2023-07-28T06:44:15;14;13;
49708;PMS5003;35601;55.902;13.606;2023-07-28T06:46:40;16;13;
49708;PMS5003;35601;55.902;13.606;2023-07-28T06:49:05;13;12;
49708;PMS5003;35601;55.902;13.606;2023-07-28T06:51:30;10;10;
49708;PMS5003;35601;55.902;13.606;2023-07-28T06:53:55;9;9;
49708;PMS5003;35601;55.902;13.606;2023-07-28T06:56:21;11;11;
49708;PMS5003;35601;55.902;13.606;2023-07-28T06:58:47;13;13;
49708;PMS5003;35601;55.902;13.606;2023-07-28T07:01:12;13;13;
49708;PMS5003;35601;55.902;13.606;2023-07-28T07:03:37;17;14;
49708;PMS5003;35601;55.902;13.606;2023-07-28T07:06:02;16;14;
49708;PMS5003;35601;55.902;13.606;2023-07-28T07:08:28;13;12;
49708;PMS5003;35601;55.902;13.606;2023-07-28T07:10:53;12;12;
49708;PMS5003;35601;55.902;13.606;2023-07-28T07:13:18;10;10;
49708;PMS5003;35601;55.902;13.606;2023-07-28T07:15:43;14;13;
49708;PMS5003;35601;55.902;13.606;2023-07-28T07:18:08;11;10;
49708;PMS5003;35601;55.902;13.606;2023-07-28T07:20:34;9;9;
49708;PMS5003;35601;55.902;13.606;2023-07-28T07:22:58;13;11;
49708;PMS5003;35601;55.902;13.606;2023-07-28T07:25:24;13;12;
49708;PMS5003;35601;55.902;13.606;2023-07-28T07:27:49;13;12;
49708;PMS5003;35601;55.902;13.606;2023-07-28T07:30:14;11;10;
49708;PMS5003;35601;55.902;13.606;2023-07-28T07:32:39;16;13;
49708;PMS5003;35601;55.902;13.606;2023-07-28T07:35:05;10;10;
49708;PMS5003;35601;55.902;13.606;2023-07-28T07:37:30;13;10;
49708;PMS5003;35601;55.902;13.606;2023-07-28T07:39:56;11;11;
49708;PMS5003;35601;55.902;13.606;2023-07-28T07:42:21;9;8;
49708;PMS5003;35601;55.902;13.606;2023-07-28T07:44:46;11;9;
49708;PMS5003;35601;55.902;13.606;2023-07-28T07:47:11;12;12;
49708;PMS5003;35601;55.902;13.606;2023-07-28T07:49:36;11;11;
49708;PMS5003;35601;55.902;13.606;2023-07-28T07:52:01;10;10;
49708;PMS5003;35601;55.902;13.606;2023-07-28T07:54:26;12;11;
49708;PMS5003;35601;55.902;13.606;2023-07-28T07:56:51;12;12;
49708;PMS5003;35601;55.902;13.606;2023-07-28T07:59:16;13;10;
49708;PMS5003;35601;55.902;13.606;2023-07-28T08:01:41;9;9;
49708;PMS5003;35601;55.902;13.606;2023-07-28T08:04:07;11;10;
49708;PMS5003;35601;55.902;13.606;2023-07-28T08:06:31;10;9;
49708;PMS5003;35601;55.902;13.606;2023-07-28T08:08:57;7;7;
49708;PMS5003;35601;55.902;13.606;2023-07-28T08:11:22;9;9;
49708;PMS5003;35601;55.902;13.606;2023-07-28T08:13:47;9;9;
49708;PMS5003;35601;55.902;13.606;2023-07-28T08:16:12;8;8;
49708;PMS5003;35601;55.902;13.606;2023-07-28T08:18:37;9;9;
49708;PMS5003;35601;55.902;13.606;2023-07-28T08:21:02;10;10;
49708;PMS5003;35601;55.902;13.606;2023-07-28T08:23:27;8;6;
49708;PMS5003;35601;55.902;13.606;2023-07-28T08:25:53;8;8;
49708;PMS5003;35601;55.902;13.606;2023-07-28T08:28:18;6;6;
49708;PMS5003;35601;55.902;13.606;2023-07-28T08:30:43;7;6;
49708;PMS5003;35601;55.902;13.606;2023-07-28T08:33:08;6;6;
49708;PMS5003;35601;55.902;13.606;2023-07-28T08:35:33;8;8;
49708;PMS5003;35601;55.902;13.606;2023-07-28T08:37:59;10;9;
49708;PMS5003;35601;55.902;13.606;2023-07-28T08:40:25;7;7;
49708;PMS5003;35601;55.902;13.606;2023-07-28T08:42:49;8;8;
49708;PMS5003;35601;55.902;13.606;2023-07-28T08:45:15;11;11;
49708;PMS5003;35601;55.902;13.606;2023-07-28T08:47:40;9;9;
49708;PMS5003;35601;55.902;13.606;2023-07-28T08:50:05;9;9;
49708;PMS5003;35601;55.902;13.606;2023-07-28T08:52:30;9;9;
49708;PMS5003;35601;55.902;13.606;2023-07-28T08:54:55;12;11;
49708;PMS5003;35601;55.902;13.606;2023-07-28T08:57:20;7;7;
49708;PMS5003;35601;55.902;13.606;2023-07-28T08:59:45;7;7;
49708;PMS5003;35601;55.902;13.606;2023-07-28T09:02:10;9;9;
49708;PMS5003;35601;55.902;13.606;2023-07-28T09:04:35;7;6;
49708;PMS5003;35601;55.902;13.606;2023-07-28T09:07:00;10;9;
49708;PMS5003;35601;55.902;13.606;2023-07-28T09:09:25;13;11;
49708;PMS5003;35601;55.902;13.606;2023-07-28T09:11:51;8;8;
49708;PMS5003;35601;55.902;13.606;2023-07-28T09:14:17;10;10;
49708;PMS5003;35601;55.902;13.606;2023-07-28T09:16:41;10;9;
49708;PMS5003;35601;55.902;13.606;2023-07-28T09:19:07;9;9;
49708;PMS5003;35601;55.902;13.606;2023-07-28T09:21:31;9;9;
49708;PMS5003;35601;55.902;13.606;2023-07-28T09:23:58;12;9;
49708;PMS5003;35601;55.902;13.606;2023-07-28T09:26:22;10;8;
49708;PMS5003;35601;55.902;13.606;2023-07-28T09:28:47;11;10;
49708;PMS5003;35601;55.902;13.606;2023-07-28T09:31:13;6;6;
49708;PMS5003;35601;55.902;13.606;2023-07-28T09:33:37;8;8;
49708;PMS5003;35601;55.902;13.606;2023-07-28T09:36:07;10;8;
49708;PMS5003;35601;55.902;13.606;2023-07-28T09:38:28;9;8;
49708;PMS5003;35601;55.902;13.606;2023-07-28T09:40:53;9;9;
49708;PMS5003;35601;55.902;13.606;2023-07-28T09:43:18;7;6;
49708;PMS5003;35601;55.902;13.606;2023-07-28T09:45:43;7;7;
49708;PMS5003;35601;55.902;13.606;2023-07-28T09:48:09;6;6;
49708;PMS5003;35601;55.902;13.606;2023-07-28T09:50:35;7;7;
49708;PMS5003;35601;55.902;13.606;2023-07-28T09:53:00;8;6;
49708;PMS5003;35601;55.902;13.606;2023-07-28T09:55:25;8;8;
49708;PMS5003;35601;55.902;13.606;2023-07-28T09:57:50;6;6;
49708;PMS5003;35601;55.902;13.606;2023-07-28T10:00:15;4;4;
49708;PMS5003;35601;55.902;13.606;2023-07-28T10:02:40;8;8;
49708;PMS5003;35601;55.902;13.606;2023-07-28T10:05:05;8;8;
49708;PMS5003;35601;55.902;13.606;2023-07-28T10:07:30;10;8;
49708;PMS5003;35601;55.902;13.606;2023-07-28T10:09:55;5;5;
49708;PMS5003;35601;55.902;13.606;2023-07-28T10:12:23;7;7;
49708;PMS5003;35601;55.902;13.606;2023-07-28T10:14:45;6;5;
49708;PMS5003;35601;55.902;13.606;2023-07-28T10:17:15;6;6;
49708;PMS5003;35601;55.902;13.606;2023-07-28T10:19:35;7;7;
49708;PMS5003;35601;55.902;13.606;2023-07-28T10:22:00;6;6;
49708;PMS5003;35601;55.902;13.606;2023-07-28T10:26:51;6;6;
49708;PMS5003;35601;55.902;13.606;2023-07-28T10:29:15;7;6;
49708;PMS5003;35601;55.902;13.606;2023-07-28T10:31:49;6;6;
49708;PMS5003;35601;55.902;13.606;2023-07-28T10:34:05;5;4;
49708;PMS5003;35601;55.902;13.606;2023-07-28T10:36:34;4;4;
49708;PMS5003;35601;55.902;13.606;2023-07-28T10:38:59;6;6;
49708;PMS5003;35601;55.902;13.606;2023-07-28T10:41:20;6;6;
49708;PMS5003;35601;55.902;13.606;2023-07-28T10:43:45;5;5;
49708;PMS5003;35601;55.902;13.606;2023-07-28T10:46:11;6;6;
49708;PMS5003;35601;55.902;13.606;2023-07-28T10:48:36;6;5;
49708;PMS5003;35601;55.902;13.606;2023-07-28T10:51:01;7;6;
49708;PMS5003;35601;55.902;13.606;2023-07-28T10:53:26;4;4;
49708;PMS5003;35601;55.902;13.606;2023-07-28T10:55:51;4;3;
49708;PMS5003;35601;55.902;13.606;2023-07-28T10:58:16;6;3;
49708;PMS5003;35601;55.902;13.606;2023-07-28T11:00:41;6;5;
49708;PMS5003;35601;55.902;13.606;2023-07-28T11:03:08;3;3;
49708;PMS5003;35601;55.902;13.606;2023-07-28T11:05:31;5;5;
49708;PMS5003;35601;55.902;13.606;2023-07-28T11:07:57;5;5;
49708;PMS5003;35601;55.902;13.606;2023-07-28T11:10:21;5;5;
49708;PMS5003;35601;55.902;13.606;2023-07-28T11:12:46;6;5;
49708;PMS5003;35601;55.902;13.606;2023-07-28T11:15:12;5;5;
49708;PMS5003;35601;55.902;13.606;2023-07-28T11:17:36;5;4;
49708;PMS5003;35601;55.902;13.606;2023-07-28T11:20:01;6;6;
49708;PMS5003;35601;55.902;13.606;2023-07-28T11:22:27;5;5;
49708;PMS5003;35601;55.902;13.606;2023-07-28T11:24:51;5;5;
49708;PMS5003;35601;55.902;13.606;2023-07-28T11:27:16;5;4;
49708;PMS5003;35601;55.902;13.606;2023-07-28T11:29:41;3;3;
49708;PMS5003;35601;55.902;13.606;2023-07-28T11:32:08;4;4;
49708;PMS5003;35601;55.902;13.606;2023-07-28T11:34:34;5;5;
49708;PMS5003;35601;55.902;13.606;2023-07-28T11:36:57;4;2;
49708;PMS5003;35601;55.902;13.606;2023-07-28T11:39:22;7;5;
49708;PMS5003;35601;55.902;13.606;2023-07-28T11:41:47;9;6;
49708;PMS5003;35601;55.902;13.606;2023-07-28T11:44:12;4;4;
49708;PMS5003;35601;55.902;13.606;2023-07-28T11:46:38;4;4;
49708;PMS5003;35601;55.902;13.606;2023-07-28T11:49:07;5;5;
49708;PMS5003;35601;55.902;13.606;2023-07-28T11:51:27;7;7;
49708;PMS5003;35601;55.902;13.606;2023-07-28T11:53:52;4;4;
49708;PMS5003;35601;55.902;13.606;2023-07-28T11:56:17;6;5;
49708;PMS5003;35601;55.902;13.606;2023-07-28T11:58:42;7;5;
49708;PMS5003;35601;55.902;13.606;2023-07-28T12:01:08;7;6;
49708;PMS5003;35601;55.902;13.606;2023-07-28T12:03:32;7;7;
49708;PMS5003;35601;55.902;13.606;2023-07-28T12:06:04;5;5;
49708;PMS5003;35601;55.902;13.606;2023-07-28T12:13:13;6;6;
49708;PMS5003;35601;55.902;13.606;2023-07-28T12:15:40;6;5;
49708;PMS5003;35601;55.902;13.606;2023-07-28T12:18:04;5;5;
49708;PMS5003;35601;55.902;13.606;2023-07-28T12:20:32;6;5;
49708;PMS5003;35601;55.902;13.606;2023-07-28T12:22:53;6;6;
49708;PMS5003;35601;55.902;13.606;2023-07-28T12:25:18;5;5;
49708;PMS5003;35601;55.902;13.606;2023-07-28T12:27:43;4;4;
49708;PMS5003;35601;55.902;13.606;2023-07-28T12:30:08;7;6;
49708;PMS5003;35601;55.902;13.606;2023-07-28T12:32:33;6;5;
49708;PMS5003;35601;55.902;13.606;2023-07-28T12:34:58;8;7;
49708;PMS5003;35601;55.902;13.606;2023-07-28T12:37:23;6;6;
49708;PMS5003;35601;55.902;13.606;2023-07-28T12:39:48;6;6;
49708;PMS5003;35601;55.902;13.606;2023-07-28T12:42:14;5;5;
49708;PMS5003;35601;55.902;13.606;2023-07-28T12:44:38;7;7;
49708;PMS5003;35601;55.902;13.606;2023-07-28T12:47:04;5;5;
49708;PMS5003;35601;55.902;13.606;2023-07-28T12:49:29;7;7;
49708;PMS5003;35601;55.902;13.606;2023-07-28T12:51:54;6;6;
49708;PMS5003;35601;55.902;13.606;2023-07-28T12:54:19;5;5;
49708;PMS5003;35601;55.902;13.606;2023-07-28T12:56:44;8;5;
49708;PMS5003;35601;55.902;13.606;2023-07-28T12:59:09;4;4;
49708;PMS5003;35601;55.902;13.606;2023-07-28T13:01:35;5;5;
49708;PMS5003;35601;55.902;13.606;2023-07-28T13:03:59;6;6;
49708;PMS5003;35601;55.902;13.606;2023-07-28T13:06:24;4;4;
49708;PMS5003;35601;55.902;13.606;2023-07-28T13:08:49;6;6;
49708;PMS5003;35601;55.902;13.606;2023-07-28T13:11:14;6;6;
49708;PMS5003;35601;55.902;13.606;2023-07-28T13:13:39;5;5;
49708;PMS5003;35601;55.902;13.606;2023-07-28T13:16:04;4;4;
49708;PMS5003;35601;55.902;13.606;2023-07-28T13:18:29;5;5;
49708;PMS5003;35601;55.902;13.606;2023-07-28T13:20:54;5;5;
49708;PMS5003;35601;55.902;13.606;2023-07-28T13:23:19;4;4;
49708;PMS5003;35601;55.902;13.606;2023-07-28T13:25:45;6;6;
49708;PMS5003;35601;55.902;13.606;2023-07-28T13:28:10;8;6;
49708;PMS5003;35601;55.902;13.606;2023-07-28T13:30:35;7;4;
49708;PMS5003;35601;55.902;13.606;2023-07-28T13:33:00;7;7;
49708;PMS5003;35601;55.902;13.606;2023-07-28T13:35:25;6;6;
49708;PMS5003;35601;55.902;13.606;2023-07-28T13:37:50;6;5;
49708;PMS5003;35601;55.902;13.606;2023-07-28T13:40:15;7;6;
49708;PMS5003;35601;55.902;13.606;2023-07-28T13:42:40;6;5;
49708;PMS5003;35601;55.902;13.606;2023-07-28T13:45:06;4;3;
49708;PMS5003;35601;55.902;13.606;2023-07-28T13:47:31;6;6;
49708;PMS5003;35601;55.902;13.606;2023-07-28T13:49:56;7;6;
49708;PMS5003;35601;55.902;13.606;2023-07-28T13:52:21;5;5;
49708;PMS5003;35601;55.902;13.606;2023-07-28T13:54:46;6;6;
49708;PMS5003;35601;55.902;13.606;2023-07-28T13:57:11;6;6;
49708;PMS5003;35601;55.902;13.606;2023-07-28T13:59:36;5;5;
49708;PMS5003;35601;55.902;13.606;2023-07-28T14:02:01;9;6;
49708;PMS5003;35601;55.902;13.606;2023-07-28T14:04:26;7;5;
49708;PMS5003;35601;55.902;13.606;2023-07-28T14:06:51;5;5;
49708;PMS5003;35601;55.902;13.606;2023-07-28T14:09:16;6;3;
49708;PMS5003;35601;55.902;13.606;2023-07-28T14:11:41;6;6;
49708;PMS5003;35601;55.902;13.606;2023-07-28T14:14:06;5;5;
49708;PMS5003;35601;55.902;13.606;2023-07-28T14:16:32;8;5;
49708;PMS5003;35601;55.902;13.606;2023-07-28T14:18:57;8;5;
49708;PMS5003;35601;55.902;13.606;2023-07-28T14:21:22;6;6;
49708;PMS5003;35601;55.902;13.606;2023-07-28T14:23:47;5;5;
49708;PMS5003;35601;55.902;13.606;2023-07-28T14:26:12;6;5;
49708;PMS5003;35601;55.902;13.606;2023-07-28T14:28:37;5;5;
49708;PMS5003;35601;55.902;13.606;2023-07-28T14:31:02;6;6;
49708;PMS5003;35601;55.902;13.606;2023-07-28T14:33:27;5;5;
49708;PMS5003;35601;55.902;13.606;2023-07-28T14:35:52;4;4;
49708;PMS5003;35601;55.902;13.606;2023-07-28T14:38:17;5;5;
49708;PMS5003;35601;55.902;13.606;2023-07-28T14:40:43;4;4;
49708;PMS5003;35601;55.902;13.606;2023-07-28T14:43:07;6;4;
49708;PMS5003;35601;55.902;13.606;2023-07-28T14:45:33;4;4;
49708;PMS5003;35601;55.902;13.606;2023-07-28T14:47:58;6;4;
49708;PMS5003;35601;55.902;13.606;2023-07-28T14:50:23;5;5;
49708;PMS5003;35601;55.902;13.606;2023-07-28T14:52:48;4;4;
49708;PMS5003;35601;55.902;13.606;2023-07-28T14:55:13;6;5;
49708;PMS5003;35601;55.902;13.606;2023-07-28T14:57:39;5;5;
49708;PMS5003;35601;55.902;13.606;2023-07-28T15:00:04;4;4;
49708;PMS5003;35601;55.902;13.606;2023-07-28T15:02:29;5;5;
49708;PMS5003;35601;55.902;13.606;2023-07-28T15:04:54;3;3;
49708;PMS5003;35601;55.902;13.606;2023-07-28T15:07:19;4;4;
49708;PMS5003;35601;55.902;13.606;2023-07-28T15:09:44;3;3;
49708;PMS5003;35601;55.902;13.606;2023-07-28T15:12:09;4;3;
49708;PMS5003;35601;55.902;13.606;2023-07-28T15:14:34;4;4;
49708;PMS5003;35601;55.902;13.606;2023-07-28T15:16:59;3;3;
49708;PMS5003;35601;55.902;13.606;2023-07-28T15:19:24;2;2;
49708;PMS5003;35601;55.902;13.606;2023-07-28T15:21:49;4;4;
49708;PMS5003;35601;55.902;13.606;2023-07-28T15:24:14;5;4;
49708;PMS5003;35601;55.902;13.606;2023-07-28T15:26:39;2;2;
49708;PMS5003;35601;55.902;13.606;2023-07-28T15:29:04;2;2;
49708;PMS5003;35601;55.902;13.606;2023-07-28T15:31:30;3;3;
49708;PMS5003;35601;55.902;13.606;2023-07-28T15:33:55;2;2;
49708;PMS5003;35601;55.902;13.606;2023-07-28T15:36:20;2;2;
49708;PMS5003;35601;55.902;13.606;2023-07-28T15:38:45;4;4;
49708;PMS5003;35601;55.902;13.606;2023-07-28T15:41:10;5;5;
49708;PMS5003;35601;55.902;13.606;2023-07-28T15:43:35;4;3;
49708;PMS5003;35601;55.902;13.606;2023-07-28T15:46:00;1;1;
49708;PMS5003;35601;55.902;13.606;2023-07-28T15:48:25;2;2;
49708;PMS5003;35601;55.902;13.606;2023-07-28T15:50:50;2;2;
49708;PMS5003;35601;55.902;13.606;2023-07-28T15:53:15;4;3;
49708;PMS5003;35601;55.902;13.606;2023-07-28T15:55:41;3;3;
49708;PMS5003;35601;55.902;13.606;2023-07-28T15:58:06;3;3;
49708;PMS5003;35601;55.902;13.606;2023-07-28T16:00:31;8;3;
49708;PMS5003;35601;55.902;13.606;2023-07-28T16:02:56;1;1;
49708;PMS5003;35601;55.902;13.606;2023-07-28T16:05:21;2;2;
49708;PMS5003;35601;55.902;13.606;2023-07-28T16:07:46;1;1;
49708;PMS5003;35601;55.902;13.606;2023-07-28T16:10:11;2;2;
49708;PMS5003;35601;55.902;13.606;2023-07-28T16:12:36;1;1;
49708;PMS5003;35601;55.902;13.606;2023-07-28T16:15:01;3;1;
49708;PMS5003;35601;55.902;13.606;2023-07-28T16:17:27;15;15;